Time;durP1;ratioP1;P1;durP2;ratioP2;P2;SDS_P1;SDS_P2;PMS_P1;PMS_P2;Temp;Humidity;BMP_temperature;BMP_pressure;BME280_temperature;BME280_humidity;BME280_pressure;Samples;Min_cycle;Max_cycle;Signal;HPM_P1;HPM_P2
2023/03/11 00:00:51;;;;;;;0.52;0.52;;;4.90;99.90;;;;;;5052355;28;20210;-61
2023/03/11 00:03:21;;;;;;;0.60;0.60;;;4.90;99.90;;;;;;5052499;28;20203;-61
2023/03/11 00:05:51;;;;;;;0.70;0.70;;;4.90;99.90;;;;;;5047987;28;20207;-61
2023/03/11 00:08:21;;;;;;;0.60;0.60;;;4.90;99.90;;;;;;5049099;28;20230;-61
2023/03/11 00:10:52;;;;;;;0.60;0.60;;;4.80;99.90;;;;;;5048534;28;20228;-61
2023/03/11 00:13:19;;;;;;;0.43;0.43;;;4.70;99.90;;;;;;5049113;28;20554;-61
2023/03/11 00:15:47;;;;;;;0.65;0.65;;;4.70;99.90;;;;;;5049519;28;20291;-61
2023/03/11 00:18:14;;;;;;;0.90;0.90;;;4.70;99.90;;;;;;5048326;28;20328;-61
2023/03/11 00:20:43;;;;;;;0.50;0.50;;;4.70;99.90;;;;;;5049177;28;20196;-61
2023/03/11 00:23:14;;;;;;;0.70;0.70;;;4.70;99.90;;;;;;5049867;28;20208;-61
2023/03/11 00:25:42;;;;;;;0.60;0.60;;;4.70;99.90;;;;;;5050796;28;20219;-62
2023/03/11 00:28:09;;;;;;;0.60;0.60;;;4.70;99.90;;;;;;5046953;28;20204;-61
2023/03/11 00:30:38;;;;;;;0.70;0.70;;;4.70;99.90;;;;;;5045689;28;20207;-62
2023/03/11 00:33:05;;;;;;;0.57;0.57;;;4.60;99.90;;;;;;5051370;28;20966;-61
2023/03/11 00:35:33;;;;;;;0.70;0.70;;;4.60;99.90;;;;;;5054677;28;20303;-62
2023/03/11 00:38:03;;;;;;;0.60;0.60;;;4.60;99.90;;;;;;5058434;28;20200;-61
2023/03/11 00:40:33;;;;;;;0.60;0.60;;;4.60;99.90;;;;;;5051638;28;20235;-61
2023/03/11 00:43:00;;;;;;;0.63;0.63;;;4.50;99.90;;;;;;5051188;28;20704;-62
2023/03/11 00:45:28;;;;;;;0.80;0.80;;;4.50;99.90;;;;;;5050243;28;20220;-62
2023/03/11 00:47:56;;;;;;;0.70;0.70;;;4.50;99.90;;;;;;5052167;28;20215;-61
2023/03/11 00:50:24;;;;;;;0.83;0.70;;;4.50;99.90;;;;;;5052991;28;20227;-61
2023/03/11 00:52:52;;;;;;;0.70;0.70;;;4.50;99.90;;;;;;5052749;28;20212;-63
2023/03/11 00:55:21;;;;;;;1.20;0.80;;;4.50;99.90;;;;;;5054268;28;20220;-62
2023/03/11 00:57:51;;;;;;;0.80;0.80;;;4.50;99.90;;;;;;5053975;28;20294;-62
2023/03/11 01:00:20;;;;;;;0.77;0.77;;;4.50;99.90;;;;;;5052138;28;20210;-62
2023/03/11 01:02:47;;;;;;;0.60;0.60;;;4.50;99.90;;;;;;5052455;28;20203;-60
2023/03/11 01:05:14;;;;;;;0.80;0.80;;;4.50;99.90;;;;;;5051757;28;20224;-61
2023/03/11 01:07:41;;;;;;;1.13;1.02;;;4.50;99.90;;;;;;5052227;28;20208;-63
2023/03/11 01:10:10;;;;;;;0.80;0.80;;;4.40;99.90;;;;;;5052003;28;20220;-61
2023/03/11 01:12:36;;;;;;;0.80;0.80;;;4.40;99.90;;;;;;5051467;28;20220;-62
2023/03/11 01:15:07;;;;;;;0.85;0.85;;;4.40;99.90;;;;;;5051182;28;20228;-62
2023/03/11 01:17:34;;;;;;;0.50;0.50;;;4.30;99.90;;;;;;5051885;28;20210;-63
2023/03/11 01:20:01;;;;;;;0.80;0.80;;;4.40;99.90;;;;;;5051716;28;20208;-62
2023/03/11 01:22:28;;;;;;;1.00;1.00;;;4.40;99.90;;;;;;5052282;28;20210;-62
2023/03/11 01:24:54;;;;;;;0.67;0.67;;;4.40;99.90;;;;;;5051666;28;20230;-61
2023/03/11 01:27:21;;;;;;;0.80;0.80;;;4.30;99.90;;;;;;5051632;28;20696;-62
2023/03/11 01:29:48;;;;;;;0.85;0.82;;;4.30;99.90;;;;;;5052652;28;20582;-61
2023/03/11 01:32:16;;;;;;;0.80;0.77;;;4.30;99.90;;;;;;5052348;28;20210;-61
2023/03/11 01:34:43;;;;;;;0.73;0.73;;;4.30;99.90;;;;;;5051716;28;20230;-62
2023/03/11 01:37:10;;;;;;;0.77;0.77;;;4.40;99.90;;;;;;5052471;28;20207;-61
2023/03/11 01:39:36;;;;;;;0.83;0.83;;;4.40;99.90;;;;;;5051144;28;20725;-62
2023/03/11 01:42:04;;;;;;;0.75;0.75;;;4.30;99.90;;;;;;5051501;28;20211;-61
2023/03/11 01:44:31;;;;;;;0.65;0.65;;;4.30;99.90;;;;;;5050958;28;20231;-61
2023/03/11 01:47:34;;;;;;;0.67;0.67;;;4.30;99.90;;;;;;5052665;28;20208;-62
2023/03/11 01:50:01;;;;;;;0.70;0.70;;;4.20;99.90;;;;;;5051209;28;20223;-62
2023/03/11 01:52:29;;;;;;;0.70;0.70;;;4.20;99.90;;;;;;5051486;28;20218;-61
2023/03/11 01:54:56;;;;;;;0.70;0.70;;;4.20;99.90;;;;;;5050830;28;20706;-61
2023/03/11 01:57:23;;;;;;;0.75;0.75;;;4.20;99.90;;;;;;5051461;28;20214;-65
2023/03/11 01:59:53;;;;;;;0.63;0.63;;;4.20;99.90;;;;;;5051487;28;20215;-63
2023/03/11 02:02:25;;;;;;;0.60;0.60;;;4.20;99.90;;;;;;5050896;28;20214;-61
2023/03/11 02:04:54;;;;;;;0.57;0.57;;;4.20;99.90;;;;;;5051163;28;20238;-63
2023/03/11 02:07:21;;;;;;;0.87;0.87;;;4.10;99.90;;;;;;5053590;28;20699;-61
2023/03/11 02:09:48;;;;;;;1.00;1.00;;;4.10;99.90;;;;;;5052177;28;20220;-61
2023/03/11 02:12:15;;;;;;;0.73;0.73;;;4.10;99.90;;;;;;5052102;28;20214;-62
2023/03/11 02:14:45;;;;;;;0.70;0.70;;;4.10;99.90;;;;;;5053625;28;20231;-61
2023/03/11 02:17:12;;;;;;;0.80;0.80;;;4.10;99.90;;;;;;5054913;28;20214;-62
2023/03/11 02:19:53;;;;;;;0.83;0.83;;;4.10;99.90;;;;;;5054319;28;20200;-61
2023/03/11 02:22:22;;;;;;;0.70;0.70;;;4.00;99.90;;;;;;5046040;28;20206;-63
2023/03/11 02:24:57;;;;;;;0.87;0.87;;;4.00;99.90;;;;;;5050551;28;20228;-61
2023/03/11 02:27:28;;;;;;;0.60;0.60;;;4.00;99.90;;;;;;5051481;28;20207;-62
2023/03/11 02:29:55;;;;;;;0.70;0.70;;;4.00;99.90;;;;;;5055615;28;20214;-62
2023/03/11 02:32:23;;;;;;;0.70;0.70;;;4.10;99.90;;;;;;5059378;28;20693;-62
2023/03/11 02:34:50;;;;;;;0.60;0.60;;;4.10;99.90;;;;;;5056238;28;20224;-62
2023/03/11 02:37:18;;;;;;;0.80;0.80;;;4.10;99.90;;;;;;5058522;28;20196;-62
2023/03/11 02:39:46;;;;;;;0.60;0.60;;;4.10;99.90;;;;;;5063325;28;20290;-61
2023/03/11 02:42:19;;;;;;;0.80;0.80;;;4.10;99.90;;;;;;5063119;28;20310;-62
2023/03/11 02:44:56;;;;;;;0.70;0.70;;;4.10;99.90;;;;;;5062919;28;20257;-62
2023/03/11 02:47:23;;;;;;;0.70;0.70;;;4.00;99.90;;;;;;5053662;28;20216;-61
2023/03/11 02:49:55;;;;;;;0.97;0.80;;;4.00;99.90;;;;;;5050317;28;20290;-61
2023/03/11 02:52:27;;;;;;;0.80;0.80;;;4.00;99.90;;;;;;5050964;28;20294;-61
2023/03/11 02:55:01;;;;;;;0.80;0.70;;;3.90;99.90;;;;;;5049582;28;20306;-61
2023/03/11 02:57:32;;;;;;;0.77;0.77;;;3.90;99.90;;;;;;5050865;28;20223;-62
2023/03/11 03:00:09;;;;;;;0.70;0.70;;;3.90;99.90;;;;;;5050831;28;20609;-62
2023/03/11 03:02:36;;;;;;;0.60;0.60;;;3.80;99.90;;;;;;5050505;28;20188;-62
2023/03/11 03:05:05;;;;;;;0.55;0.55;;;3.80;99.90;;;;;;5049754;28;20322;-62
2023/03/11 03:07:35;;;;;;;0.73;0.73;;;3.80;99.90;;;;;;5051473;28;20605;-61
2023/03/11 03:10:13;;;;;;;0.70;0.70;;;3.70;99.90;;;;;;5055622;28;20702;-61
2023/03/11 03:12:40;;;;;;;0.90;0.90;;;3.70;99.90;;;;;;5054464;28;20305;-61
2023/03/11 03:15:22;;;;;;;0.80;0.80;;;3.60;99.90;;;;;;5054202;28;20224;-62
2023/03/11 03:17:51;;;;;;;0.70;0.70;;;3.60;99.90;;;;;;5054437;28;20188;-61
2023/03/11 03:20:21;;;;;;;0.75;0.75;;;3.60;99.90;;;;;;5054505;28;20208;-61
2023/03/11 03:22:48;;;;;;;0.70;0.70;;;3.40;99.90;;;;;;5054345;28;20311;-60
2023/03/11 03:25:17;;;;;;;0.88;0.88;;;3.40;99.90;;;;;;5053141;28;20228;-62
2023/03/11 03:28:01;;;;;;;0.70;0.70;;;3.50;99.90;;;;;;5054684;28;20292;-61
2023/03/11 03:30:38;;;;;;;0.70;0.70;;;3.50;99.90;;;;;;5053184;28;20228;-62
2023/03/11 03:33:08;;;;;;;0.80;0.80;;;3.50;99.90;;;;;;5054318;28;20257;-62
2023/03/11 03:35:35;;;;;;;0.70;0.70;;;3.60;99.90;;;;;;5053027;28;20604;-62
2023/03/11 03:38:03;;;;;;;0.80;0.80;;;3.70;99.90;;;;;;5054047;28;20251;-61
2023/03/11 03:40:30;;;;;;;0.80;0.80;;;3.70;99.90;;;;;;5054073;28;20745;-62
2023/03/11 03:42:58;;;;;;;1.35;0.70;;;3.80;99.90;;;;;;5053568;28;20295;-61
2023/03/11 03:45:29;;;;;;;0.97;0.97;;;3.70;99.90;;;;;;5053074;28;20725;-62
2023/03/11 03:48:00;;;;;;;0.82;0.82;;;3.60;99.90;;;;;;5053592;28;20762;-62
2023/03/11 03:50:28;;;;;;;0.80;0.80;;;3.60;99.90;;;;;;5053519;28;20706;-62
2023/03/11 03:52:59;;;;;;;0.63;0.63;;;3.50;99.90;;;;;;5053435;28;20253;-62
2023/03/11 03:55:33;;;;;;;0.90;0.90;;;3.50;99.90;;;;;;5052925;28;20315;-61
2023/03/11 03:58:05;;;;;;;0.87;0.87;;;3.40;99.90;;;;;;5053599;28;20250;-61
2023/03/11 04:00:40;;;;;;;1.10;0.90;;;3.30;99.90;;;;;;5053255;28;20207;-60
2023/03/11 04:03:14;;;;;;;0.80;0.80;;;3.20;99.90;;;;;;5053281;28;20211;-61
2023/03/11 04:05:50;;;;;;;0.80;0.80;;;3.30;99.90;;;;;;5052456;28;20226;-62
2023/03/11 04:08:35;;;;;;;0.80;0.80;;;3.30;99.90;;;;;;5052643;28;20255;-61
2023/03/11 04:11:08;;;;;;;0.80;0.80;;;3.30;99.90;;;;;;5052921;28;20347;-62
2023/03/11 04:13:43;;;;;;;0.63;0.63;;;3.40;99.90;;;;;;5052796;28;20295;-62
2023/03/11 04:16:19;;;;;;;0.60;0.60;;;3.40;99.90;;;;;;5052580;28;20188;-62
2023/03/11 04:18:52;;;;;;;0.77;0.77;;;3.40;99.90;;;;;;5053361;28;20227;-61
2023/03/11 04:21:30;;;;;;;0.70;0.70;;;3.40;99.90;;;;;;5053199;28;20254;-62
2023/03/11 04:24:02;;;;;;;0.93;0.93;;;3.50;99.90;;;;;;5052485;28;20259;-62
2023/03/11 04:26:52;;;;;;;0.80;0.80;;;3.40;99.90;;;;;;5055321;28;20208;-61
2023/03/11 04:29:21;;;;;;;0.80;0.80;;;3.50;99.90;;;;;;5055616;28;20192;-62
2023/03/11 04:31:53;;;;;;;0.70;0.70;;;3.50;99.90;;;;;;5054134;28;20204;-62
2023/03/11 04:34:37;;;;;;;0.73;0.73;;;3.40;99.90;;;;;;5052714;28;20227;-61
2023/03/11 04:37:08;;;;;;;0.60;0.60;;;3.40;99.90;;;;;;5053060;28;20261;-62
2023/03/11 04:39:48;;;;;;;0.57;0.57;;;3.40;99.90;;;;;;5052766;28;20207;-62
2023/03/11 04:42:20;;;;;;;0.70;0.70;;;3.30;99.90;;;;;;5052837;28;20275;-61
2023/03/11 04:44:47;;;;;;;0.90;0.90;;;3.30;99.90;;;;;;5052460;28;20224;-62
2023/03/11 04:47:21;;;;;;;0.60;0.60;;;3.30;99.90;;;;;;5053767;28;20204;-61
2023/03/11 04:49:58;;;;;;;0.80;0.80;;;3.20;99.90;;;;;;5053480;28;20650;-61
2023/03/11 04:52:31;;;;;;;0.80;0.80;;;3.20;99.90;;;;;;5052355;28;20212;-62
2023/03/11 04:55:13;;;;;;;0.70;0.70;;;3.30;99.90;;;;;;5051894;28;20239;-62
2023/03/11 04:57:40;;;;;;;0.70;0.70;;;3.30;99.90;;;;;;5052689;28;20208;-61
2023/03/11 05:00:11;;;;;;;0.85;0.85;;;3.20;99.90;;;;;;5050638;28;20286;-61
2023/03/11 05:02:40;;;;;;;0.60;0.60;;;3.10;99.90;;;;;;5052354;28;20577;-62
2023/03/11 05:05:28;;;;;;;0.80;0.80;;;3.00;99.90;;;;;;5051344;28;20235;-61
2023/03/11 05:07:58;;;;;;;0.83;0.83;;;3.00;99.90;;;;;;5052041;28;20210;-60
2023/03/11 05:10:27;;;;;;;0.70;0.70;;;2.90;99.90;;;;;;5052080;28;20223;-62
2023/03/11 05:12:56;;;;;;;1.25;0.90;;;2.80;99.90;;;;;;5051590;28;20706;-61
2023/03/11 05:15:24;;;;;;;0.60;0.60;;;2.90;99.90;;;;;;5051381;28;20314;-61
2023/03/11 05:17:53;;;;;;;0.73;0.73;;;2.90;99.90;;;;;;5052373;28;20294;-61
2023/03/11 05:20:30;;;;;;;0.60;0.60;;;2.90;99.90;;;;;;5052428;28;20294;-62
2023/03/11 05:23:03;;;;;;;0.63;0.63;;;3.00;99.90;;;;;;5052153;28;20195;-63
2023/03/11 05:25:32;;;;;;;0.70;0.57;;;3.00;99.90;;;;;;5054098;28;20224;-63
2023/03/11 05:28:06;;;;;;;0.70;0.70;;;2.90;99.90;;;;;;5053739;28;20678;-61
2023/03/11 05:30:32;;;;;;;0.67;0.67;;;2.90;99.90;;;;;;5050245;28;20793;-62
2023/03/11 05:33:02;;;;;;;0.80;0.80;;;2.90;99.90;;;;;;5051132;28;21054;-61
2023/03/11 05:35:34;;;;;;;0.60;0.60;;;2.80;99.90;;;;;;5051363;28;20780;-63
2023/03/11 05:38:01;;;;;;;0.60;0.60;;;2.90;99.90;;;;;;5052265;28;20235;-61
2023/03/11 05:40:33;;;;;;;0.63;0.53;;;2.90;99.90;;;;;;5055955;28;20228;-61
2023/03/11 05:43:09;;;;;;;0.67;0.67;;;2.90;99.90;;;;;;5055985;28;20560;-62
2023/03/11 05:45:36;;;;;;;0.77;0.77;;;3.00;99.90;;;;;;5050269;28;21045;-61
2023/03/11 05:48:05;;;;;;;0.70;0.70;;;3.00;99.90;;;;;;5051516;28;20712;-62
2023/03/11 05:50:38;;;;;;;1.00;1.00;;;3.00;99.90;;;;;;5051443;28;20270;-61
2023/03/11 05:53:07;;;;;;;0.70;0.70;;;2.90;99.90;;;;;;5051504;28;20845;-61
2023/03/11 05:55:34;;;;;;;1.08;0.77;;;3.00;99.90;;;;;;5051215;28;20598;-62
2023/03/11 05:58:07;;;;;;;0.80;0.80;;;2.90;99.90;;;;;;5051699;28;20215;-62
2023/03/11 06:00:36;;;;;;;1.20;1.10;;;2.80;99.90;;;;;;5051374;28;20249;-61
2023/03/11 06:03:05;;;;;;;0.90;0.90;;;2.90;99.90;;;;;;5054689;28;20234;-63
2023/03/11 06:05:49;;;;;;;0.70;0.70;;;2.90;99.90;;;;;;5050146;28;20219;-61
2023/03/11 06:08:16;;;;;;;1.10;1.00;;;2.90;99.90;;;;;;5051155;28;20217;-61
2023/03/11 06:10:45;;;;;;;0.87;0.87;;;3.00;99.90;;;;;;5049521;28;20223;-62
2023/03/11 06:13:12;;;;;;;0.97;0.97;;;3.10;99.90;;;;;;5050574;28;20290;-62
2023/03/11 06:15:46;;;;;;;0.60;0.60;;;3.00;99.90;;;;;;5050356;28;20224;-62
2023/03/11 06:18:13;;;;;;;0.90;0.90;;;2.90;99.90;;;;;;5051027;28;20612;-62
2023/03/11 06:20:41;;;;;;;0.73;0.73;;;2.90;99.90;;;;;;5050892;28;20690;-63
2023/03/11 06:23:12;;;;;;;0.73;0.73;;;2.90;99.90;;;;;;5051034;28;20279;-62
2023/03/11 06:25:39;;;;;;;0.60;0.60;;;2.90;99.90;;;;;;5049977;28;20231;-62
2023/03/11 06:28:11;;;;;;;0.80;0.80;;;2.90;99.90;;;;;;5051111;28;20203;-61
2023/03/11 06:30:49;;;;;;;0.80;0.80;;;2.90;99.90;;;;;;5050482;28;20270;-62
2023/03/11 06:33:16;;;;;;;0.70;0.70;;;3.00;99.90;;;;;;5050989;28;20219;-63
2023/03/11 06:35:57;;;;;;;0.90;0.90;;;3.00;99.90;;;;;;5050406;28;20258;-61
2023/03/11 06:38:27;;;;;;;1.40;0.80;;;3.20;99.90;;;;;;5052290;28;20192;-62
2023/03/11 06:41:02;;;;;;;0.90;0.90;;;3.30;99.90;;;;;;5053120;28;20223;-62
2023/03/11 06:43:32;;;;;;;0.87;0.87;;;3.40;99.90;;;;;;5053305;28;20623;-61
2023/03/11 06:46:14;;;;;;;0.83;0.83;;;3.40;99.90;;;;;;5054227;28;20211;-62
2023/03/11 06:48:46;;;;;;;0.83;0.83;;;3.50;99.90;;;;;;5054942;28;20659;-61
2023/03/11 06:51:21;;;;;;;0.90;0.90;;;3.40;99.90;;;;;;5054254;28;20247;-61
2023/03/11 06:53:59;;;;;;;0.80;0.80;;;3.40;99.90;;;;;;5054350;28;20227;-62
2023/03/11 06:56:28;;;;;;;1.02;0.98;;;3.40;99.90;;;;;;5054967;28;20283;-62
2023/03/11 06:58:56;;;;;;;0.88;0.88;;;3.50;99.90;;;;;;5055293;28;20206;-62
2023/03/11 07:01:28;;;;;;;0.80;0.80;;;3.60;99.90;;;;;;5054453;28;20261;-61
2023/03/11 07:03:57;;;;;;;0.80;0.80;;;3.60;99.90;;;;;;5054207;28;20718;-63
2023/03/11 07:06:35;;;;;;;1.40;1.30;;;3.70;99.90;;;;;;5055405;28;20295;-61
2023/03/11 07:09:03;;;;;;;1.40;1.30;;;3.70;99.90;;;;;;5054885;28;20212;-61
2023/03/11 07:11:33;;;;;;;1.20;1.20;;;3.90;99.90;;;;;;5054533;28;20212;-61
2023/03/11 07:14:01;;;;;;;1.30;1.20;;;3.90;99.90;;;;;;5053468;28;20228;-61
2023/03/11 07:16:41;;;;;;;0.90;0.90;;;4.00;99.90;;;;;;5054797;28;20188;-61
2023/03/11 07:19:10;;;;;;;1.33;1.27;;;4.00;99.90;;;;;;5054192;28;20203;-61
2023/03/11 07:21:54;;;;;;;1.10;1.10;;;4.00;99.90;;;;;;5055817;28;20204;-62
2023/03/11 07:24:20;;;;;;;1.20;1.20;;;4.10;99.90;;;;;;5059810;28;20270;-61
2023/03/11 07:26:47;;;;;;;1.37;1.27;;;4.20;99.90;;;;;;5058217;28;20204;-61
2023/03/11 07:29:18;;;;;;;1.20;1.20;;;4.10;99.90;;;;;;5062717;28;20234;-62
2023/03/11 07:31:48;;;;;;;1.17;1.10;;;4.20;99.90;;;;;;5065524;28;20254;-62
2023/03/11 07:34:19;;;;;;;1.48;1.38;;;4.20;99.90;;;;;;5053151;28;20227;-62
2023/03/11 07:36:48;;;;;;;1.07;1.07;;;4.30;99.90;;;;;;5054236;28;20196;-62
2023/03/11 07:39:18;;;;;;;1.37;1.30;;;4.50;99.90;;;;;;5053853;28;20675;-62
2023/03/11 07:41:50;;;;;;;1.50;1.40;;;4.50;99.90;;;;;;5055518;28;20271;-63
2023/03/11 07:44:19;;;;;;;1.50;1.40;;;4.60;99.90;;;;;;5055620;28;20264;-61
2023/03/11 07:46:49;;;;;;;1.10;1.10;;;4.60;99.90;;;;;;5053868;28;20663;-62
2023/03/11 07:49:19;;;;;;;1.43;1.40;;;4.70;99.90;;;;;;5054010;28;20204;-63
2023/03/11 07:52:00;;;;;;;1.50;1.40;;;4.70;99.90;;;;;;5052623;28;20773;-63
2023/03/11 07:54:32;;;;;;;1.10;1.10;;;4.70;99.90;;;;;;5052004;28;20227;-63
2023/03/11 07:57:08;;;;;;;1.13;1.00;;;4.70;99.90;;;;;;5054244;28;20271;-62
2023/03/11 07:59:34;;;;;;;1.17;1.10;;;4.70;99.90;;;;;;5053352;28;20584;-62
2023/03/11 08:02:03;;;;;;;1.27;1.03;;;4.80;99.90;;;;;;5053380;28;20306;-62
2023/03/11 08:04:30;;;;;;;1.15;1.10;;;4.70;99.90;;;;;;5052407;28;20286;-62
2023/03/11 08:06:57;;;;;;;1.30;1.20;;;4.80;99.90;;;;;;5053099;28;20614;-62
2023/03/11 08:09:31;;;;;;;1.57;1.47;;;4.80;99.90;;;;;;5053477;28;20277;-63
2023/03/11 08:12:05;;;;;;;1.30;1.30;;;4.80;99.90;;;;;;5053016;28;20267;-61
2023/03/11 08:14:52;;;;;;;1.37;1.33;;;4.80;99.90;;;;;;5051983;28;20293;-62
2023/03/11 08:17:33;;;;;;;1.30;1.20;;;4.90;99.90;;;;;;5052870;28;20279;-62
2023/03/11 08:20:05;;;;;;;1.27;1.20;;;5.10;99.90;;;;;;5053239;28;20282;-62
2023/03/11 08:22:32;;;;;;;1.10;1.10;;;5.00;99.90;;;;;;5052321;28;20686;-62
2023/03/11 08:25:12;;;;;;;1.23;1.20;;;5.10;99.90;;;;;;5051694;28;20223;-63
2023/03/11 08:27:46;;;;;;;1.03;0.93;;;5.00;99.90;;;;;;5052911;28;20795;-62
2023/03/11 08:30:16;;;;;;;1.30;1.20;;;4.80;99.90;;;;;;5052984;28;20398;-63
2023/03/11 08:32:54;;;;;;;1.13;1.10;;;4.80;99.90;;;;;;5052385;28;20319;-63
2023/03/11 08:35:26;;;;;;;1.55;1.42;;;4.90;99.90;;;;;;5052172;28;20707;-62
2023/03/11 08:37:57;;;;;;;1.13;1.10;;;4.90;99.90;;;;;;5053021;28;20227;-62
2023/03/11 08:40:29;;;;;;;1.60;1.20;;;5.10;99.90;;;;;;5052368;28;20184;-63
2023/03/11 08:42:56;;;;;;;0.90;0.90;;;5.30;99.90;;;;;;5052923;28;20744;-62
2023/03/11 08:45:23;;;;;;;1.90;1.13;;;5.20;99.90;;;;;;5052828;28;20252;-62
2023/03/11 08:47:50;;;;;;;2.20;1.20;;;5.10;99.90;;;;;;5056248;28;20202;-61
2023/03/11 08:50:19;;;;;;;0.80;0.80;;;5.40;99.90;;;;;;5059205;28;20243;-62
2023/03/11 08:52:46;;;;;;;1.13;0.90;;;5.50;99.90;;;;;;5061402;28;20279;-62
2023/03/11 08:55:15;;;;;;;1.13;0.80;;;5.50;99.90;;;;;;5059574;28;20263;-61
2023/03/11 08:57:43;;;;;;;0.80;0.80;;;5.90;99.90;;;;;;5059742;28;20885;-62
2023/03/11 09:00:12;;;;;;;1.00;1.00;;;6.30;99.90;;;;;;5056172;28;20207;-62
2023/03/11 09:02:40;;;;;;;1.00;1.00;;;6.70;99.90;;;;;;5053519;28;20259;-63
2023/03/11 09:05:07;;;;;;;0.90;0.90;;;6.90;99.90;;;;;;5052254;28;20220;-60
2023/03/11 09:07:34;;;;;;;0.90;0.90;;;7.00;99.90;;;;;;5051658;28;20259;-61
2023/03/11 09:10:01;;;;;;;0.90;0.90;;;7.00;99.90;;;;;;5052339;28;20214;-61
2023/03/11 09:12:28;;;;;;;1.30;1.13;;;7.00;99.90;;;;;;5052066;28;20227;-62
2023/03/11 09:14:56;;;;;;;1.10;1.10;;;7.30;99.90;;;;;;5052064;28;20224;-61
2023/03/11 09:17:23;;;;;;;0.80;0.80;;;7.40;99.90;;;;;;5058013;28;20544;-62
2023/03/11 09:19:50;;;;;;;2.73;1.30;;;7.40;99.90;;;;;;5052290;28;20200;-61
2023/03/11 09:22:17;;;;;;;1.17;1.10;;;7.30;99.90;;;;;;5051463;28;20211;-62
2023/03/11 09:24:44;;;;;;;1.00;0.87;;;7.10;99.90;;;;;;5051153;28;20234;-62
2023/03/11 09:27:11;;;;;;;1.25;1.15;;;6.90;99.90;;;;;;5050702;28;20784;-62
2023/03/11 09:29:38;;;;;;;0.90;0.90;;;7.10;99.90;;;;;;5051122;28;20212;-60
2023/03/11 09:32:07;;;;;;;1.60;1.00;;;7.30;99.90;;;;;;5050280;28;20204;-60
2023/03/11 09:34:34;;;;;;;0.93;0.90;;;7.00;99.90;;;;;;5050802;28;20235;-60
2023/03/11 09:37:01;;;;;;;1.10;1.10;;;7.30;99.90;;;;;;5052084;28;20722;-60
2023/03/11 09:39:28;;;;;;;2.07;1.10;;;7.70;99.90;;;;;;5052576;28;20203;-61
2023/03/11 09:41:57;;;;;;;1.30;1.20;;;8.00;99.90;;;;;;5051674;28;20200;-61
2023/03/11 09:44:31;;;;;;;2.23;1.37;;;8.00;99.90;;;;;;5050266;28;20732;-61
2023/03/11 09:47:25;;;;;;;1.13;1.00;;;7.80;99.90;;;;;;5051474;28;20634;-61
2023/03/11 09:50:20;;;;;;;0.90;0.90;;;7.90;99.90;;;;;;5051341;28;20188;-60
2023/03/11 09:52:58;;;;;;;0.93;0.93;;;8.10;99.90;;;;;;5045806;28;20230;-61
2023/03/11 09:55:33;;;;;;;0.90;0.90;;;8.10;99.90;;;;;;5053652;28;20220;-61
2023/03/11 09:58:04;;;;;;;1.10;1.00;;;8.40;99.90;;;;;;5052755;28;20217;-61
2023/03/11 10:00:31;;;;;;;1.10;1.00;;;8.70;99.90;;;;;;5051565;28;20208;-62
2023/03/11 10:03:01;;;;;;;1.00;1.00;;;8.90;99.90;;;;;;5051038;28;20206;-60
2023/03/11 10:05:29;;;;;;;0.80;0.80;;;9.00;99.90;;;;;;5053331;28;20313;-60
2023/03/11 10:08:01;;;;;;;1.13;1.02;;;9.20;99.90;;;;;;5053850;28;20214;-60
2023/03/11 10:10:33;;;;;;;0.67;0.67;;;9.40;99.90;;;;;;5053198;28;20204;-60
2023/03/11 10:13:11;;;;;;;0.73;0.73;;;9.30;99.90;;;;;;5052095;28;20609;-60
2023/03/11 10:15:47;;;;;;;1.27;0.80;;;9.50;99.90;;;;;;5049577;28;20223;-61
2023/03/11 10:18:55;;;;;;;0.80;0.80;;;9.50;99.90;;;;;;5050673;28;20184;-61
2023/03/11 10:21:37;;;;;;;0.52;0.52;;;9.50;99.90;;;;;;5035287;28;20211;-61
2023/03/11 10:24:18;;;;;;;0.70;0.70;;;9.60;99.90;;;;;;5049994;28;20227;-61
2023/03/11 10:26:49;;;;;;;0.80;0.80;;;9.70;99.90;;;;;;5050962;28;20218;-62
2023/03/11 10:29:21;;;;;;;0.80;0.80;;;9.80;99.90;;;;;;5050877;28;20184;-61
2023/03/11 10:31:52;;;;;;;0.80;0.77;;;9.40;99.90;;;;;;5050795;28;20208;-60
2023/03/11 10:34:24;;;;;;;0.70;0.70;;;9.30;99.90;;;;;;5049844;28;20219;-60
2023/03/11 10:37:00;;;;;;;0.50;0.50;;;9.60;99.90;;;;;;5051348;28;20206;-61
2023/03/11 10:39:28;;;;;;;0.50;0.50;;;9.30;99.90;;;;;;5051463;28;20246;-61
2023/03/11 10:41:57;;;;;;;0.80;0.80;;;8.50;99.90;;;;;;5058173;28;20208;-62
2023/03/11 10:44:28;;;;;;;1.33;1.23;;;8.50;99.90;;;;;;5056531;28;20230;-61
2023/03/11 10:46:54;;;;;;;1.35;0.90;;;8.60;99.90;;;;;;5056883;28;20287;-62
2023/03/11 10:49:21;;;;;;;0.60;0.60;;;8.60;99.90;;;;;;5055502;28;20283;-62
2023/03/11 10:51:50;;;;;;;0.90;0.90;;;8.60;99.90;;;;;;5054013;28;20223;-60
2023/03/11 10:54:26;;;;;;;0.90;0.90;;;8.70;99.90;;;;;;5050620;28;20311;-61
2023/03/11 10:56:56;;;;;;;1.02;0.90;;;8.50;99.90;;;;;;5053006;28;20230;-62
2023/03/11 10:59:26;;;;;;;0.53;0.53;;;8.50;99.90;;;;;;5052340;28;20189;-61
2023/03/11 11:01:58;;;;;;;0.77;0.77;;;8.60;99.90;;;;;;5052288;28;20256;-60
2023/03/11 11:04:31;;;;;;;1.10;1.05;;;8.60;99.90;;;;;;5052462;28;20227;-61
2023/03/11 11:06:59;;;;;;;0.90;0.90;;;8.50;99.90;;;;;;5050947;28;20211;-60
2023/03/11 11:09:29;;;;;;;0.80;0.80;;;8.20;99.90;;;;;;5050551;28;20238;-60
2023/03/11 11:12:06;;;;;;;0.70;0.70;;;8.40;99.90;;;;;;5050435;28;20234;-60
2023/03/11 11:14:43;;;;;;;0.77;0.77;;;8.50;99.90;;;;;;5050933;28;20314;-61
2023/03/11 11:17:18;;;;;;;0.70;0.70;;;8.40;99.90;;;;;;5050526;28;20206;-60
2023/03/11 11:19:46;;;;;;;0.85;0.70;;;8.60;99.90;;;;;;5049936;28;20268;-62
2023/03/11 11:22:17;;;;;;;0.70;0.70;;;8.60;99.90;;;;;;5050120;28;20644;-60
2023/03/11 11:24:47;;;;;;;0.60;0.60;;;8.60;99.90;;;;;;5049531;28;20224;-62
2023/03/11 11:27:18;;;;;;;0.53;0.53;;;8.20;99.90;;;;;;5050567;28;20560;-61
2023/03/11 11:29:46;;;;;;;0.60;0.60;;;8.20;99.90;;;;;;5051316;28;20238;-61
2023/03/11 11:32:19;;;;;;;1.00;0.90;;;8.40;99.90;;;;;;5053347;28;20220;-62
2023/03/11 11:34:54;;;;;;;0.80;0.80;;;8.70;99.90;;;;;;5052754;28;20632;-61
2023/03/11 11:37:22;;;;;;;0.60;0.60;;;8.90;99.90;;;;;;5053696;28;20679;-62
2023/03/11 11:39:55;;;;;;;0.60;0.60;;;9.00;99.90;;;;;;5053907;28;20215;-62
2023/03/11 11:42:24;;;;;;;1.00;0.70;;;8.80;99.90;;;;;;5053838;28;20230;-62
2023/03/11 11:44:56;;;;;;;0.60;0.60;;;8.70;99.90;;;;;;5053090;28;20242;-62
2023/03/11 11:47:27;;;;;;;0.60;0.60;;;8.80;99.90;;;;;;5053812;28;20196;-62
2023/03/11 11:49:57;;;;;;;0.70;0.70;;;8.70;99.90;;;;;;5053640;28;20203;-62
2023/03/11 11:52:27;;;;;;;0.57;0.57;;;8.60;99.90;;;;;;5052784;28;20223;-61
2023/03/11 11:55:02;;;;;;;0.90;0.90;;;8.60;99.90;;;;;;5053047;28;20230;-61
2023/03/11 11:57:29;;;;;;;0.60;0.60;;;8.80;99.90;;;;;;5054079;28;20215;-61
2023/03/11 11:59:56;;;;;;;0.50;0.50;;;8.80;99.90;;;;;;5054941;28;20218;-62
2023/03/11 12:02:45;;;;;;;0.50;0.50;;;8.70;99.90;;;;;;5055315;28;20583;-63
2023/03/11 12:05:18;;;;;;;0.70;0.70;;;8.70;99.90;;;;;;5054193;28;20311;-62
2023/03/11 12:07:58;;;;;;;0.60;0.60;;;8.80;99.90;;;;;;5059559;28;20188;-60
2023/03/11 12:10:31;;;;;;;0.73;0.73;;;9.00;99.90;;;;;;5057060;28;20207;-61
2023/03/11 12:13:18;;;;;;;0.43;0.43;;;9.10;99.90;;;;;;5053764;28;20228;-61
2023/03/11 12:15:53;;;;;;;0.63;0.63;;;9.20;99.90;;;;;;5052773;28;20306;-64
2023/03/11 12:18:28;;;;;;;0.73;0.60;;;9.40;99.90;;;;;;5053588;28;20202;-61
2023/03/11 12:20:55;;;;;;;0.60;0.60;;;9.60;99.90;;;;;;5053424;28;20207;-62
2023/03/11 12:23:39;;;;;;;0.90;0.90;;;9.70;99.90;;;;;;5053273;28;20212;-61
2023/03/11 12:26:16;;;;;;;0.90;0.90;;;9.50;99.90;;;;;;5052360;28;20230;-61
2023/03/11 12:28:48;;;;;;;0.73;0.73;;;9.40;99.90;;;;;;5052884;28;20214;-62
2023/03/11 12:31:16;;;;;;;0.73;0.73;;;9.30;99.90;;;;;;5053035;28;20192;-61
2023/03/11 12:33:45;;;;;;;0.80;0.70;;;9.20;99.90;;;;;;5052975;28;20224;-61
2023/03/11 12:36:24;;;;;;;0.77;0.77;;;9.10;99.90;;;;;;5052724;28;20291;-61
2023/03/11 12:38:53;;;;;;;0.82;0.82;;;9.00;99.90;;;;;;5052741;28;20212;-62
2023/03/11 12:41:38;;;;;;;1.73;0.80;;;9.10;99.90;;;;;;5052518;28;20212;-63
2023/03/11 12:44:21;;;;;;;0.90;0.82;;;9.10;99.90;;;;;;5053074;28;20231;-63
2023/03/11 12:47:30;;;;;;;0.60;0.60;;;9.00;99.90;;;;;;5050299;28;20200;-61
2023/03/11 12:50:35;;;;;;;0.60;0.60;;;9.00;99.90;;;;;;5051471;28;20208;-61
2023/03/11 12:53:02;;;;;;;0.60;0.60;;;9.10;99.90;;;;;;5054857;28;20320;-61
2023/03/11 12:55:38;;;;;;;0.67;0.67;;;8.80;99.90;;;;;;5054499;28;20238;-62
2023/03/11 12:58:34;;;;;;;0.73;0.73;;;8.90;99.90;;;;;;5053096;28;20199;-62
2023/03/11 13:01:13;;;;;;;0.60;0.60;;;9.10;99.90;;;;;;5052547;28;20220;-61
2023/03/11 13:03:49;;;;;;;1.00;0.77;;;9.10;99.90;;;;;;5052023;28;20215;-62
2023/03/11 13:06:31;;;;;;;0.73;0.73;;;9.00;99.90;;;;;;5052539;28;20203;-62
2023/03/11 13:08:59;;;;;;;0.80;0.80;;;9.10;99.90;;;;;;5053063;28;20560;-63
2023/03/11 13:11:38;;;;;;;0.73;0.73;;;9.20;99.90;;;;;;5052392;28;20208;-62
2023/03/11 13:14:30;;;;;;;0.73;0.73;;;9.00;99.90;;;;;;5051280;28;20388;-61
2023/03/11 13:17:16;;;;;;;0.82;0.82;;;9.20;99.90;;;;;;5051750;28;20681;-61
2023/03/11 13:19:53;;;;;;;0.80;0.80;;;9.50;99.90;;;;;;5052307;28;20184;-63
2023/03/11 13:22:44;;;;;;;0.60;0.60;;;9.40;99.90;;;;;;5052134;28;20295;-62